Time;durP1;ratioP1;P1;durP2;ratioP2;P2;SDS_P1;SDS_P2;PMS_P1;PMS_P2;Temp;Humidity;BMP_temperature;BMP_pressure;BME280_temperature;BME280_humidity;BME280_pressure;Samples;Min_cycle;Max_cycle;Signal;HPM_P1;HPM_P2
2022/02/23 00:00:29;;;;;;;;;;;;;;;4.70;100.00;96224.63;1031709;28;19902;-71
2022/02/23 00:00:59;;;;;;;;;;;;;;;4.70;100.00;96239.41;1035106;28;19906;-71
2022/02/23 00:01:31;;;;;;;;;;;;;;;4.73;100.00;96236.41;1035346;28;19916;-70
2022/02/23 00:02:02;;;;;;;;;;;;;;;4.70;100.00;96235.00;1031103;28;19916;-71
2022/02/23 00:02:33;;;;;;;;;;;;;;;4.69;100.00;96238.63;1031339;28;20367;-71
2022/02/23 00:03:03;;;;;;;;;;;;;;;4.68;100.00;96226.63;1035273;28;19910;-69
2022/02/23 00:03:33;;;;;;;;;;;;;;;4.69;100.00;96220.44;1030979;28;20552;-72
2022/02/23 00:04:04;;;;;;;;;;;;;;;4.69;100.00;96232.63;1035079;28;20000;-71
2022/02/23 00:04:34;;;;;;;;;;;;;;;4.68;100.00;96228.44;1035139;28;19912;-71
2022/02/23 00:05:05;;;;;;;;;;;;;;;4.66;100.00;96228.66;1030917;28;19960;-71
2022/02/23 00:05:35;;;;;;;;;;;;;;;4.67;100.00;96232.84;1027200;28;19914;-71
2022/02/23 00:06:06;;;;;;;;;;;;;;;4.70;100.00;96229.03;1026904;28;19906;-71
2022/02/23 00:06:36;;;;;;;;;;;;;;;4.67;100.00;96235.44;1031056;28;19906;-70
2022/02/23 00:07:06;;;;;;;;;;;;;;;4.71;100.00;96225.41;1035185;28;20471;-71
2022/02/23 00:07:36;;;;;;;;;;;;;;;4.71;100.00;96226.19;1039259;28;19952;-71
2022/02/23 00:08:07;;;;;;;;;;;;;;;4.72;100.00;96221.78;1030723;28;19902;-71
2022/02/23 00:08:37;;;;;;;;;;;;;;;4.70;100.00;96223.81;1033938;28;20426;-70
2022/02/23 00:09:07;;;;;;;;;;;;;;;4.69;100.00;96232.63;1035278;28;20173;-71
2022/02/23 00:09:38;;;;;;;;;;;;;;;4.72;100.00;96221.78;1034793;28;19905;-71
2022/02/23 00:10:08;;;;;;;;;;;;;;;4.71;100.00;96228.81;1030861;28;19936;-71
2022/02/23 00:10:38;;;;;;;;;;;;;;;4.70;100.00;96226.44;1034604;28;19909;-71
2022/02/23 00:11:09;;;;;;;;;;;;;;;4.74;100.00;96224.97;1037343;28;19910;-72
2022/02/23 00:11:40;;;;;;;;;;;;;;;4.78;100.00;96210.53;1034850;28;19913;-71
2022/02/23 00:12:10;;;;;;;;;;;;;;;4.76;100.00;96222.16;1027132;28;20040;-71
2022/02/23 00:12:40;;;;;;;;;;;;;;;4.75;100.00;96229.16;1035028;28;19914;-71
2022/02/23 00:13:11;;;;;;;;;;;;;;;4.74;100.00;96219.78;1035123;28;19949;-71
2022/02/23 00:13:41;;;;;;;;;;;;;;;4.77;100.00;96229.75;1039416;28;20275;-71
2022/02/23 00:14:11;;;;;;;;;;;;;;;4.76;100.00;96220.34;1035177;28;19909;-71
2022/02/23 00:14:42;;;;;;;;;;;;;;;4.83;100.00;96236.72;1030817;28;20000;-70
2022/02/23 00:15:12;;;;;;;;;;;;;;;4.85;100.00;96218.28;1030947;28;19910;-70
2022/02/23 00:15:42;;;;;;;;;;;;;;;4.82;100.00;96216.91;1030976;28;19943;-72
2022/02/23 00:16:12;;;;;;;;;;;;;;;4.85;100.00;96226.09;1031041;28;20445;-72
2022/02/23 00:16:43;;;;;;;;;;;;;;;4.84;100.00;96222.69;1039086;28;20038;-71
2022/02/23 00:17:13;;;;;;;;;;;;;;;4.83;100.00;96218.50;1038632;28;19963;-71
2022/02/23 00:17:44;;;;;;;;;;;;;;;4.82;100.00;96224.69;1035154;28;19968;-70
2022/02/23 00:18:17;;;;;;;;;;;;;;;4.85;100.00;96220.88;1035112;28;19918;-71
2022/02/23 00:18:47;;;;;;;;;;;;;;;4.85;100.00;96219.06;1030570;28;19945;-71
2022/02/23 00:19:18;;;;;;;;;;;;;;;4.84;100.00;96220.09;1032244;28;19925;-71
2022/02/23 00:19:48;;;;;;;;;;;;;;;4.86;100.00;96223.28;1038500;28;20457;-71
2022/02/23 00:20:18;;;;;;;;;;;;;;;4.89;100.00;96230.63;1035544;28;19917;-70
2022/02/23 00:20:49;;;;;;;;;;;;;;;4.89;100.00;96209.03;1034830;28;19949;-70
2022/02/23 00:21:19;;;;;;;;;;;;;;;4.89;100.00;96212.44;1031183;28;20032;-71
2022/02/23 00:21:49;;;;;;;;;;;;;;;4.90;100.00;96224.44;1035057;28;19948;-71
2022/02/23 00:22:20;;;;;;;;;;;;;;;4.91;100.00;96220.81;1039104;28;19928;-71
2022/02/23 00:22:50;;;;;;;;;;;;;;;4.95;100.00;96221.97;1034829;28;20030;-69
2022/02/23 00:23:20;;;;;;;;;;;;;;;4.93;100.00;96221.41;1035430;28;19913;-70
2022/02/23 00:23:50;;;;;;;;;;;;;;;4.94;100.00;96224.81;1034861;28;19922;-70
2022/02/23 00:24:23;;;;;;;;;;;;;;;4.94;100.00;96223.00;1035794;28;19949;-71
2022/02/23 00:24:54;;;;;;;;;;;;;;;4.94;100.00;96214.41;1039339;28;20407;-71
2022/02/23 00:25:24;;;;;;;;;;;;;;;4.95;100.00;96227.19;1039175;28;19969;-71
2022/02/23 00:25:54;;;;;;;;;;;;;;;4.99;100.00;96213.75;1034738;28;20011;-71
2022/02/23 00:26:25;;;;;;;;;;;;;;;4.97;100.00;96221.78;1035105;28;19968;-71
2022/02/23 00:26:55;;;;;;;;;;;;;;;4.98;100.00;96215.56;1034908;28;19929;-71
2022/02/23 00:27:25;;;;;;;;;;;;;;;5.00;100.00;96212.72;1034943;28;19917;-72
2022/02/23 00:27:56;;;;;;;;;;;;;;;5.03;100.00;96223.53;1035043;28;19920;-71
2022/02/23 00:28:26;;;;;;;;;;;;;;;5.03;100.00;96223.53;1026932;28;19914;-71
2022/02/23 00:28:56;;;;;;;;;;;;;;;5.07;100.00;96213.50;1033020;28;19992;-70
2022/02/23 00:29:27;;;;;;;;;;;;;;;5.08;100.00;96213.25;1034578;28;19924;-70
2022/02/23 00:29:57;;;;;;;;;;;;;;;5.08;100.00;96223.66;1034890;28;19913;-71
2022/02/23 00:30:27;;;;;;;;;;;;;;;5.09;100.00;96216.66;1038994;28;20346;-71
2022/02/23 00:30:58;;;;;;;;;;;;;;;5.09;100.00;96222.66;1030890;28;19977;-71
2022/02/23 00:31:28;;;;;;;;;;;;;;;5.09;100.00;96227.06;1022891;28;19918;-71
2022/02/23 00:31:58;;;;;;;;;;;;;;;5.09;100.00;96224.44;1023030;29;20364;-71
2022/02/23 00:32:30;;;;;;;;;;;;;;;5.08;100.00;96222.88;1026751;28;20373;-70
2022/02/23 00:33:00;;;;;;;;;;;;;;;5.07;100.00;96229.09;1027304;28;19953;-71
2022/02/23 00:33:31;;;;;;;;;;;;;;;5.08;100.00;96221.06;1031116;28;19987;-71
2022/02/23 00:34:01;;;;;;;;;;;;;;;5.08;100.00;96218.47;1036963;28;20302;-72
2022/02/23 00:34:31;;;;;;;;;;;;;;;5.12;100.00;96232.63;1043124;28;19917;-71
2022/02/23 00:35:05;;;;;;;;;;;;;;;5.10;100.00;96234.66;1039128;28;20436;-71
2022/02/23 00:35:35;;;;;;;;;;;;;;;5.10;100.00;96223.47;1038927;28;19928;-70
2022/02/23 00:36:05;;;;;;;;;;;;;;;5.10;100.00;96223.47;1035280;28;19997;-71
2022/02/23 00:36:36;;;;;;;;;;;;;;;5.08;100.00;96230.69;1035394;28;19925;-71
2022/02/23 00:37:06;;;;;;;;;;;;;;;5.07;100.00;96232.47;1039119;28;19959;-71
2022/02/23 00:37:36;;;;;;;;;;;;;;;5.07;100.00;96224.69;1038882;28;19917;-71
2022/02/23 00:38:07;;;;;;;;;;;;;;;5.08;100.00;96226.25;1035117;28;19940;-70
2022/02/23 00:38:37;;;;;;;;;;;;;;;5.09;100.00;96219.25;1035813;28;19917;-72
2022/02/23 00:39:07;;;;;;;;;;;;;;;5.10;100.00;96228.66;1031211;28;19924;-71
2022/02/23 00:39:40;;;;;;;;;;;;;;;5.11;100.00;96230.25;1034856;28;20195;-70
2022/02/23 00:40:11;;;;;;;;;;;;;;;5.13;100.00;96233.41;1032169;28;19925;-71
2022/02/23 00:40:41;;;;;;;;;;;;;;;5.13;100.00;96217.81;1036105;28;20280;-70
2022/02/23 00:41:12;;;;;;;;;;;;;;;5.13;100.00;96233.41;1031432;28;19918;-70
2022/02/23 00:41:44;;;;;;;;;;;;;;;5.11;100.00;96235.44;1026597;28;20360;-71
2022/02/23 00:42:15;;;;;;;;;;;;;;;5.10;100.00;96234.66;1019021;29;19919;-70
2022/02/23 00:42:45;;;;;;;;;;;;;;;5.12;100.00;96231.81;1023332;28;20465;-70
2022/02/23 00:43:16;;;;;;;;;;;;;;;5.13;100.00;96231.63;1031153;28;19918;-70
2022/02/23 00:43:46;;;;;;;;;;;;;;;5.13;100.00;96217.81;1030657;28;19914;-70
2022/02/23 00:44:16;;;;;;;;;;;;;;;5.14;100.00;96235.03;1034860;28;19920;-70
2022/02/23 00:44:46;;;;;;;;;;;;;;;5.16;100.00;96227.78;1030749;28;19923;-71
2022/02/23 00:45:17;;;;;;;;;;;;;;;5.16;100.00;96227.78;1035122;28;19914;-70
2022/02/23 00:45:48;;;;;;;;;;;;;;;5.15;100.00;96227.00;1032930;28;21516;-71
2022/02/23 00:46:18;;;;;;;;;;;;;;;5.17;100.00;96224.19;1034903;28;19918;-70
2022/02/23 00:46:48;;;;;;;;;;;;;;;5.16;100.00;96219.97;1034799;28;19933;-70
2022/02/23 00:47:18;;;;;;;;;;;;;;;5.15;100.00;96232.19;1031872;28;19918;-70
2022/02/23 00:47:49;;;;;;;;;;;;;;;5.12;100.00;96224.03;1038187;28;20380;-70
2022/02/23 00:48:19;;;;;;;;;;;;;;;5.11;100.00;96215.44;1034475;28;19917;-71
2022/02/23 00:48:49;;;;;;;;;;;;;;;5.11;100.00;96228.44;1039285;28;19917;-71
2022/02/23 00:49:20;;;;;;;;;;;;;;;5.11;100.00;96220.63;1043312;28;19917;-70
2022/02/23 00:49:50;;;;;;;;;;;;;;;5.13;100.00;96225.59;1030921;28;19920;-70
2022/02/23 00:50:21;;;;;;;;;;;;;;;5.11;100.00;96222.44;1030866;28;19999;-70
2022/02/23 00:50:51;;;;;;;;;;;;;;;5.13;100.00;96217.81;1030882;28;19913;-71
2022/02/23 00:51:22;;;;;;;;;;;;;;;5.12;100.00;96222.22;1026922;28;20398;-71
2022/02/23 00:51:52;;;;;;;;;;;;;;;5.11;100.00;96227.66;1030999;28;19962;-71
2022/02/23 00:52:22;;;;;;;;;;;;;;;5.12;100.00;96234.44;1036824;28;19920;-71
2022/02/23 00:52:53;;;;;;;;;;;;;;;5.12;100.00;96227.41;1043277;28;19955;-71
2022/02/23 00:53:23;;;;;;;;;;;;;;;5.13;100.00;96223.00;1039611;28;19951;-70
2022/02/23 00:53:57;;;;;;;;;;;;;;;5.11;100.00;96238.06;1035048;28;20434;-71
2022/02/23 00:54:27;;;;;;;;;;;;;;;5.13;100.00;96228.22;1030791;28;19922;-70
2022/02/23 00:54:57;;;;;;;;;;;;;;;5.12;100.00;96231.81;1031375;28;20325;-71
2022/02/23 00:55:28;;;;;;;;;;;;;;;5.10;100.00;96242.47;1031800;28;19918;-71
2022/02/23 00:55:58;;;;;;;;;;;;;;;5.08;100.00;96241.88;1034984;28;19909;-70
2022/02/23 00:56:28;;;;;;;;;;;;;;;5.05;100.00;96236.31;1034556;28;19913;-70
2022/02/23 00:56:59;;;;;;;;;;;;;;;5.02;100.00;96247.13;1031096;28;20397;-69
2022/02/23 00:57:32;;;;;;;;;;;;;;;4.99;100.00;96232.75;1030768;28;19906;-71
2022/02/23 00:58:02;;;;;;;;;;;;;;;4.98;100.00;96231.16;1031360;28;19910;-71
2022/02/23 00:58:33;;;;;;;;;;;;;;;4.95;100.00;96234.97;1030461;28;20633;-71
2022/02/23 00:59:03;;;;;;;;;;;;;;;4.86;100.00;96228.50;1027758;28;19907;-71
2022/02/23 00:59:33;;;;;;;;;;;;;;;4.83;100.00;96241.09;1030262;28;19906;-71
2022/02/23 01:00:04;;;;;;;;;;;;;;;4.79;100.00;96237.34;1030629;28;19973;-70
2022/02/23 01:00:35;;;;;;;;;;;;;;;4.75;100.00;96236.97;1030752;28;19937;-71
2022/02/23 01:01:05;;;;;;;;;;;;;;;4.71;100.00;96236.59;1030968;28;19956;-71
2022/02/23 01:01:35;;;;;;;;;;;;;;;4.69;100.00;96233.44;1034972;28;19910;-70
2022/02/23 01:02:06;;;;;;;;;;;;;;;4.64;100.00;96243.66;1034987;28;19951;-71
2022/02/23 01:02:36;;;;;;;;;;;;;;;4.65;100.00;96232.25;1038872;28;19912;-71
2022/02/23 01:03:06;;;;;;;;;;;;;;;4.65;100.00;96236.66;1043279;28;19912;-71
2022/02/23 01:03:37;;;;;;;;;;;;;;;4.60;100.00;96223.50;1038979;28;19912;-72
2022/02/23 01:04:07;;;;;;;;;;;;;;;4.64;100.00;96248.06;1035029;28;19937;-71
2022/02/23 01:04:38;;;;;;;;;;;;;;;4.62;100.00;96237.06;1030862;28;19905;-71
2022/02/23 01:05:08;;;;;;;;;;;;;;;4.63;100.00;96246.47;1032669;28;19916;-71
2022/02/23 01:05:40;;;;;;;;;;;;;;;4.61;100.00;96228.47;1031174;28;19909;-71
2022/02/23 01:06:19;;;;;;;;;;;;;;;4.56;100.00;96237.91;1030879;28;19906;-71
2022/02/23 01:06:49;;;;;;;;;;;;;;;4.57;100.00;96235.13;1036856;28;20007;-71
2022/02/23 01:07:25;;;;;;;;;;;;;;;4.58;100.00;96235.91;1036332;28;19972;-71
2022/02/23 01:07:56;;;;;;;;;;;;;;;4.56;100.00;96249.13;1041363;28;19909;-71
2022/02/23 01:08:26;;;;;;;;;;;;;;;4.61;100.00;96225.09;1042975;28;19917;-71
2022/02/23 01:08:56;;;;;;;;;;;;;;;4.61;100.00;96230.28;1039716;28;19913;-71
2022/02/23 01:09:27;;;;;;;;;;;;;;;4.68;100.00;96241.44;1042536;28;20472;-70
2022/02/23 01:09:57;;;;;;;;;;;;;;;4.65;100.00;96236.66;1039017;28;19975;-72
2022/02/23 01:10:27;;;;;;;;;;;;;;;4.65;100.00;96228.84;1030729;28;19918;-71
2022/02/23 01:10:58;;;;;;;;;;;;;;;4.49;100.00;96207.59;1034610;28;19924;-70
2022/02/23 01:11:28;;;;;;;;;;;;;;;4.69;100.00;96238.63;1033740;28;19905;-71
2022/02/23 01:11:58;;;;;;;;;;;;;;;4.48;100.00;96208.59;1030729;28;19918;-71
2022/02/23 01:12:32;;;;;;;;;;;;;;;4.71;100.00;96241.00;1038967;28;19913;-70
2022/02/23 01:13:02;;;;;;;;;;;;;;;4.69;100.00;96240.41;1039455;28;19913;-70
2022/02/23 01:13:32;;;;;;;;;;;;;;;4.72;100.00;96248.56;1037793;28;19928;-71
2022/02/23 01:14:03;;;;;;;;;;;;;;;4.73;100.00;96244.19;1039055;28;19913;-71
2022/02/23 01:14:33;;;;;;;;;;;;;;;4.70;100.00;96242.03;1035028;28;19996;-71
2022/02/23 01:15:04;;;;;;;;;;;;;;;4.70;100.00;96239.41;1034878;28;20073;-71
2022/02/23 01:15:34;;;;;;;;;;;;;;;4.73;100.00;96236.41;1034827;28;19920;-71
2022/02/23 01:16:04;;;;;;;;;;;;;;;4.73;100.00;96244.19;1028081;28;19921;-71
2022/02/23 01:16:35;;;;;;;;;;;;;;;4.72;100.00;96252.97;1034715;28;19914;-70
2022/02/23 01:17:05;;;;;;;;;;;;;;;4.70;100.00;96252.41;1034551;28;19913;-71
2022/02/23 01:17:38;;;;;;;;;;;;;;;4.68;100.00;96252.63;1031651;28;20001;-71
2022/02/23 01:18:09;;;;;;;;;;;;;;;4.64;100.00;96248.06;1029806;28;19914;-70
2022/02/23 01:18:39;;;;;;;;;;;;;;;4.64;100.00;96255.88;1029312;28;19925;-71
2022/02/23 01:19:09;;;;;;;;;;;;;;;4.65;100.00;96254.84;1031442;28;20527;-71
2022/02/23 01:19:40;;;;;;;;;;;;;;;4.63;100.00;96262.06;1034544;28;20497;-70
2022/02/23 01:20:10;;;;;;;;;;;;;;;4.30;100.00;96198.16;1040834;28;19917;-71
2022/02/23 01:20:40;;;;;;;;;;;;;;;4.67;100.00;96245.03;1038738;28;19917;-71
2022/02/23 01:21:13;;;;;;;;;;;;;;;4.68;100.00;96263.00;1038732;28;19916;-71
2022/02/23 01:21:44;;;;;;;;;;;;;;;4.67;100.00;96239.84;1034945;28;20657;-71
2022/02/23 01:22:14;;;;;;;;;;;;;;;4.68;100.00;96252.63;1037932;28;20072;-71
2022/02/23 01:22:44;;;;;;;;;;;;;;;4.71;100.00;96267.00;1038284;28;19917;-71
2022/02/23 01:23:15;;;;;;;;;;;;;;;4.71;100.00;96241.78;1029951;28;19914;-71
2022/02/23 01:23:45;;;;;;;;;;;;;;;4.65;100.00;96247.84;1037652;28;19956;-71
2022/02/23 01:24:15;;;;;;;;;;;;;;;4.60;100.00;96246.91;1035040;28;19925;-71
2022/02/23 01:24:48;;;;;;;;;;;;;;;4.58;100.00;96239.31;1035222;28;19920;-71
2022/02/23 01:25:19;;;;;;;;;;;;;;;4.59;100.00;96238.28;1035200;28;20290;-71
2022/02/23 01:25:49;;;;;;;;;;;;;;;4.69;100.00;96235.22;1034979;28;19925;-70
2022/02/23 01:26:19;;;;;;;;;;;;;;;4.62;100.00;96242.28;1035394;28;19926;-70
2022/02/23 01:26:50;;;;;;;;;;;;;;;4.58;100.00;96239.31;1039037;28;20317;-70
2022/02/23 01:27:20;;;;;;;;;;;;;;;4.58;100.00;96246.31;1038873;28;19918;-71
2022/02/23 01:27:50;;;;;;;;;;;;;;;4.59;100.00;96247.88;1034942;28;19925;-70
2022/02/23 01:28:21;;;;;;;;;;;;;;;4.55;100.00;96242.31;1030827;28;20053;-70
2022/02/23 01:28:51;;;;;;;;;;;;;;;4.58;100.00;96246.31;1026820;28;19982;-70
2022/02/23 01:29:24;;;;;;;;;;;;;;;4.55;100.00;96231.13;1030887;28;19917;-70
2022/02/23 01:30:17;;;;;;;;;;;;;;;4.56;100.00;96235.31;1037751;28;19925;-71
2022/02/23 01:30:47;;;;;;;;;;;;;;;4.55;100.00;96225.94;1033840;28;20263;-71
2022/02/23 01:31:17;;;;;;;;;;;;;;;4.53;100.00;96227.94;1037979;28;19924;-71
2022/02/23 01:31:48;;;;;;;;;;;;;;;4.51;100.00;96235.19;1026449;28;20470;-71
2022/02/23 01:32:18;;;;;;;;;;;;;;;4.49;100.00;96225.78;1026496;28;19928;-71
2022/02/23 01:32:49;;;;;;;;;;;;;;;4.49;100.00;96222.38;1026689;28;20384;-72
2022/02/23 01:33:19;;;;;;;;;;;;;;;4.47;100.00;96217.41;1027030;28;19914;-71
2022/02/23 01:33:49;;;;;;;;;;;;;;;4.45;100.00;96222.00;1030268;28;19910;-71
2022/02/23 01:34:20;;;;;;;;;;;;;;;4.51;100.00;96233.38;1030881;28;20406;-71
2022/02/23 01:34:50;;;;;;;;;;;;;;;4.50;100.00;96236.97;1030539;28;19946;-72
2022/02/23 01:35:21;;;;;;;;;;;;;;;4.47;100.00;96222.59;1038792;28;19925;-72
2022/02/23 01:35:52;;;;;;;;;;;;;;;4.51;100.00;96229.97;1042605;28;19974;-71
2022/02/23 01:36:22;;;;;;;;;;;;;;;4.50;100.00;96231.78;1038921;28;19920;-71
2022/02/23 01:36:52;;;;;;;;;;;;;;;4.49;100.00;96232.78;1034699;28;20299;-71
2022/02/23 01:37:23;;;;;;;;;;;;;;;4.46;100.00;96228.81;1034917;28;19913;-71
2022/02/23 01:37:53;;;;;;;;;;;;;;;4.46;100.00;96243.59;1030720;28;19917;-71
2022/02/23 01:38:27;;;;;;;;;;;;;;;4.55;100.00;96226.72;1035314;28;19940;-69
2022/02/23 01:38:58;;;;;;;;;;;;;;;4.56;100.00;96238.75;1039656;28;19924;-71
2022/02/23 01:39:28;;;;;;;;;;;;;;;4.53;100.00;96238.34;1038830;28;19917;-70
2022/02/23 01:39:58;;;;;;;;;;;;;;;4.57;100.00;96236.94;1038949;28;19917;-70
2022/02/23 01:40:29;;;;;;;;;;;;;;;4.18;100.00;96189.44;1041110;28;20299;-70
2022/02/23 01:41:01;;;;;;;;;;;;;;;4.57;100.00;96239.53;1039812;28;19938;-71
2022/02/23 01:41:31;;;;;;;;;;;;;;;4.60;100.00;96236.50;1043070;28;19904;-71
2022/02/23 01:42:04;;;;;;;;;;;;;;;4.60;100.00;96254.69;1037352;28;19916;-72
2022/02/23 01:42:34;;;;;;;;;;;;;;;4.65;100.00;96242.63;1033049;28;20470;-72
2022/02/23 01:43:05;;;;;;;;;;;;;;;4.65;100.00;96247.84;1032726;28;19921;-72
2022/02/23 01:43:35;;;;;;;;;;;;;;;4.59;100.00;96247.88;1036244;28;19916;-72
2022/02/23 01:44:05;;;;;;;;;;;;;;;4.57;100.00;96255.91;1035860;28;19917;-71
2022/02/23 01:44:36;;;;;;;;;;;;;;;4.61;100.00;96248.50;1036197;28;19921;-71
2022/02/23 01:45:06;;;;;;;;;;;;;;;4.62;100.00;96250.88;1032616;28;20322;-71
2022/02/23 01:45:36;;;;;;;;;;;;;;;4.68;100.00;96247.41;1036517;28;19918;-71
2022/02/23 01:46:08;;;;;;;;;;;;;;;4.69;100.00;96248.22;1032198;28;20367;-72
2022/02/23 01:46:38;;;;;;;;;;;;;;;4.65;100.00;96242.63;1032012;28;19931;-70
2022/02/23 01:47:08;;;;;;;;;;;;;;;4.65;100.00;96241.84;1031986;28;19965;-71
2022/02/23 01:47:39;;;;;;;;;;;;;;;4.65;100.00;96247.03;1030772;28;19921;-71
2022/02/23 01:48:09;;;;;;;;;;;;;;;4.63;100.00;96242.06;1031021;28;19918;-71
2022/02/23 01:48:40;;;;;;;;;;;;;;;4.65;100.00;96247.84;1034946;28;19917;-71
2022/02/23 01:49:10;;;;;;;;;;;;;;;4.67;100.00;96239.84;1043265;28;19920;-70
2022/02/23 01:49:40;;;;;;;;;;;;;;;4.65;100.00;96254.84;1038197;28;19913;-68
2022/02/23 01:50:11;;;;;;;;;;;;;;;4.68;100.00;96259.63;1038963;28;19917;-70
2022/02/23 01:50:44;;;;;;;;;;;;;;;4.65;100.00;96247.84;1039084;28;20016;-71
2022/02/23 01:51:14;;;;;;;;;;;;;;;4.68;100.00;96251.81;1039400;28;19924;-71
2022/02/23 01:51:44;;;;;;;;;;;;;;;4.65;100.00;96245.25;1038691;28;20480;-71
2022/02/23 01:52:15;;;;;;;;;;;;;;;4.66;100.00;96246.03;1034986;28;19917;-71
2022/02/23 01:52:45;;;;;;;;;;;;;;;4.63;100.00;96249.09;1031224;28;20418;-69
2022/02/23 01:53:19;;;;;;;;;;;;;;;4.59;100.00;96253.88;1030451;28;19952;-70
2022/02/23 01:53:49;;;;;;;;;;;;;;;4.59;100.00;96247.88;1030697;28;19916;-70
2022/02/23 01:54:20;;;;;;;;;;;;;;;4.61;100.00;96251.09;1030910;28;19925;-70
2022/02/23 01:54:50;;;;;;;;;;;;;;;4.58;100.00;96261.91;1031819;28;19925;-71
2022/02/23 01:55:21;;;;;;;;;;;;;;;4.57;100.00;96245.50;1035526;28;19909;-69
2022/02/23 01:55:51;;;;;;;;;;;;;;;4.60;100.00;96259.91;1031167;28;20409;-71
2022/02/23 01:56:21;;;;;;;;;;;;;;;4.60;100.00;96249.50;1035338;28;19914;-71
2022/02/23 01:56:52;;;;;;;;;;;;;;;4.61;100.00;96257.06;1034815;28;19919;-70
2022/02/23 01:57:22;;;;;;;;;;;;;;;4.60;100.00;96257.31;1031634;28;19960;-70
2022/02/23 01:57:52;;;;;;;;;;;;;;;4.65;100.00;96260.03;1023839;29;20031;-71
2022/02/23 01:58:23;;;;;;;;;;;;;;;4.64;100.00;96248.84;1027466;28;19914;-71
2022/02/23 01:58:53;;;;;;;;;;;;;;;4.63;100.00;96249.09;1031424;28;19921;-72
2022/02/23 01:59:26;;;;;;;;;;;;;;;4.61;100.00;96246.69;1031436;28;19914;-72
2022/02/23 01:59:56;;;;;;;;;;;;;;;4.57;100.00;96250.72;1035241;28;19922;-71
2022/02/23 02:00:26;;;;;;;;;;;;;;;4.56;100.00;96237.91;1035973;28;19913;-72
2022/02/23 02:00:57;;;;;;;;;;;;;;;4.56;100.00;96248.31;1035755;28;19921;-72
2022/02/23 02:01:27;;;;;;;;;;;;;;;4.57;100.00;96250.72;1039675;28;19955;-72
2022/02/23 02:01:58;;;;;;;;;;;;;;;4.55;100.00;96246.72;1043604;28;19921;-71
2022/02/23 02:02:29;;;;;;;;;;;;;;;4.59;100.00;96245.28;1043798;28;19909;-71
2022/02/23 02:02:59;;;;;;;;;;;;;;;4.56;100.00;96238.75;1043668;28;19912;-71
2022/02/23 02:03:30;;;;;;;;;;;;;;;4.56;100.00;96245.72;1043700;28;20461;-71
2022/02/23 02:04:00;;;;;;;;;;;;;;;4.57;100.00;96245.50;1043698;28;19966;-71
2022/02/23 02:04:33;;;;;;;;;;;;;;;4.66;100.00;96238.22;1043804;28;19920;-72
2022/02/23 02:05:06;;;;;;;;;;;;;;;4.65;100.00;96241.84;1043635;28;19974;-72
2022/02/23 02:05:37;;;;;;;;;;;;;;;4.65;100.00;96247.03;1040470;28;19960;-72
2022/02/23 02:06:07;;;;;;;;;;;;;;;4.64;100.00;96246.25;1043672;28;20042;-71
2022/02/23 02:06:37;;;;;;;;;;;;;;;4.66;100.00;96248.63;1043685;28;19928;-72
2022/02/23 02:07:08;;;;;;;;;;;;;;;4.65;100.00;96255.63;1031188;28;19918;-71
2022/02/23 02:07:38;;;;;;;;;;;;;;;4.63;100.00;96243.88;1027559;28;20348;-71
2022/02/23 02:08:08;;;;;;;;;;;;;;;4.67;100.00;96247.66;1023363;29;20269;-71
2022/02/23 02:08:38;;;;;;;;;;;;;;;4.68;100.00;96246.63;1023595;28;20292;-72
2022/02/23 02:09:09;;;;;;;;;;;;;;;4.76;100.00;96248.94;1031326;28;19961;-71
2022/02/23 02:09:42;;;;;;;;;;;;;;;4.77;100.00;96250.56;1035106;28;19910;-71
2022/02/23 02:10:12;;;;;;;;;;;;;;;4.83;100.00;96256.69;1039596;28;20308;-71
2022/02/23 02:10:42;;;;;;;;;;;;;;;4.86;100.00;96254.50;1039217;28;19921;-71
2022/02/23 02:11:13;;;;;;;;;;;;;;;4.81;100.00;96256.91;1035180;28;19921;-70
2022/02/23 02:11:43;;;;;;;;;;;;;;;4.79;100.00;96258.91;1031477;28;19917;-70
2022/02/23 02:12:13;;;;;;;;;;;;;;;4.76;100.00;96246.34;1035560;28;20362;-71
2022/02/23 02:12:44;;;;;;;;;;;;;;;4.73;100.00;96250.19;1035688;28;19925;-71
2022/02/23 02:13:14;;;;;;;;;;;;;;;4.75;100.00;96262.16;1035243;28;20465;-71
2022/02/23 02:13:45;;;;;;;;;;;;;;;4.79;100.00;96250.34;1027293;28;19949;-71
2022/02/23 02:14:15;;;;;;;;;;;;;;;4.77;100.00;96242.75;1027459;28;19918;-70
2022/02/23 02:14:45;;;;;;;;;;;;;;;4.78;100.00;96257.34;1027486;28;19933;-70
2022/02/23 02:15:15;;;;;;;;;;;;;;;4.81;100.00;96251.72;1023239;28;19922;-70
2022/02/23 02:15:46;;;;;;;;;;;;;;;4.80;100.00;96239.75;1027384;28;20451;-70
2022/02/23 02:16:16;;;;;;;;;;;;;;;4.91;100.00;96257.22;1027619;28;19925;-71
2022/02/23 02:16:46;;;;;;;;;;;;;;;4.88;100.00;96262.84;1031429;28;20295;-71
2022/02/23 02:17:17;;;;;;;;;;;;;;;4.88;100.00;96257.66;1031481;28;19936;-71
2022/02/23 02:17:47;;;;;;;;;;;;;;;4.88;100.00;96252.44;1035495;28;20451;-71
2022/02/23 02:18:17;;;;;;;;;;;;;;;4.86;100.00;96241.50;1035703;28;19964;-70
2022/02/23 02:18:48;;;;;;;;;;;;;;;4.89;100.00;96248.84;1027204;28;19927;-71
2022/02/23 02:19:18;;;;;;;;;;;;;;;4.92;100.00;96252.81;1027740;28;19997;-70
2022/02/23 02:19:49;;;;;;;;;;;;;;;4.92;100.00;96248.41;1026638;28;20038;-70
2022/02/23 02:20:19;;;;;;;;;;;;;;;4.91;100.00;96248.63;1028671;28;19922;-71
2022/02/23 02:20:49;;;;;;;;;;;;;;;4.99;100.00;96257.97;1031399;28;19982;-70
2022/02/23 02:21:19;;;;;;;;;;;;;;;4.99;100.00;96253.56;1027598;28;19914;-71
2022/02/23 02:21:50;;;;;;;;;;;;;;;4.96;100.00;96252.19;1027220;28;19914;-70
2022/02/23 02:22:20;;;;;;;;;;;;;;;4.95;100.00;96261.00;1031399;28;20358;-70
2022/02/23 02:22:50;;;;;;;;;;;;;;;5.05;100.00;96251.91;1027519;28;19922;-69
2022/02/23 02:23:21;;;;;;;;;;;;;;;5.03;100.00;96246.13;1031556;28;19933;-69
2022/02/23 02:23:51;;;;;;;;;;;;;;;5.02;100.00;96260.13;1035413;28;19918;-71
2022/02/23 02:24:22;;;;;;;;;;;;;;;5.05;100.00;96257.91;1039241;28;19920;-70
2022/02/23 02:24:52;;;;;;;;;;;;;;;5.06;100.00;96249.06;1035749;28;19916;-70
2022/02/23 02:25:22;;;;;;;;;;;;;;;5.04;100.00;96252.94;1038690;28;19920;-69
2022/02/23 02:25:53;;;;;;;;;;;;;;;5.01;100.00;96250.75;1031364;28;19957;-70
2022/02/23 02:26:23;;;;;;;;;;;;;;;5.01;100.00;96255.94;1034087;28;19921;-71
2022/02/23 02:26:54;;;;;;;;;;;;;;;5.05;100.00;96257.91;1031365;28;19925;-70
2022/02/23 02:27:24;;;;;;;;;;;;;;;5.06;100.00;96261.28;1033098;28;20000;-71
2022/02/23 02:27:59;;;;;;;;;;;;;;;5.09;100.00;96253.06;1035548;28;20282;-70
2022/02/23 02:28:29;;;;;;;;;;;;;;;5.08;100.00;96241.88;1038450;28;19918;-70
2022/02/23 02:28:59;;;;;;;;;;;;;;;5.05;100.00;96247.50;1031976;28;19914;-70
2022/02/23 02:29:30;;;;;;;;;;;;;;;5.08;100.00;96252.28;1035030;28;19913;-70
2022/02/23 02:30:00;;;;;;;;;;;;;;;5.09;100.00;96253.06;1035445;28;20545;-71
2022/02/23 02:30:30;;;;;;;;;;;;;;;5.11;100.00;96251.06;1026245;28;19910;-70
2022/02/23 02:31:01;;;;;;;;;;;;;;;5.14;100.00;96254.03;1032075;28;20315;-69
2022/02/23 02:31:31;;;;;;;;;;;;;;;4.78;100.00;96197.56;1027421;28;19918;-69
2022/02/23 02:32:04;;;;;;;;;;;;;;;5.17;100.00;96245.78;1031460;28;19918;-69
2022/02/23 02:32:34;;;;;;;;;;;;;;;5.16;100.00;96259.00;1031403;28;19914;-70
2022/02/23 02:33:07;;;;;;;;;;;;;;;5.17;100.00;96256.19;1028424;28;19938;-70
2022/02/23 02:33:38;;;;;;;;;;;;;;;5.14;100.00;96248.81;1032419;28;19921;-70
2022/02/23 02:34:08;;;;;;;;;;;;;;;5.18;100.00;96256.97;1030946;28;19918;-71
2022/02/23 02:34:39;;;;;;;;;;;;;;;5.14;100.00;96242.81;1036972;28;19902;-70
2022/02/23 02:35:09;;;;;;;;;;;;;;;5.16;100.00;96259.00;1036400;28;19920;-71
2022/02/23 02:35:39;;;;;;;;;;;;;;;5.17;100.00;96260.59;1036298;28;20036;-70
2022/02/23 02:36:10;;;;;;;;;;;;;;;5.14;100.00;96255.84;1040520;28;19975;-70
2022/02/23 02:36:40;;;;;;;;;;;;;;;5.12;100.00;96263.03;1036505;28;20257;-71
2022/02/23 02:37:10;;;;;;;;;;;;;;;5.12;100.00;96257.84;1032283;28;20394;-70
2022/02/23 02:37:41;;;;;;;;;;;;;;;5.10;100.00;96271.06;1036441;28;19917;-70
2022/02/23 02:38:12;;;;;;;;;;;;;;;5.11;100.00;96264.84;1028166;28;19925;-71
2022/02/23 02:38:42;;;;;;;;;;;;;;;5.12;100.00;96273.44;1032558;28;20346;-70
2022/02/23 02:39:12;;;;;;;;;;;;;;;5.18;100.00;96273.38;1032088;28;19951;-71
2022/02/23 02:39:42;;;;;;;;;;;;;;;5.17;100.00;96268.41;1031818;28;19918;-70
2022/02/23 02:40:13;;;;;;;;;;;;;;;5.13;100.00;96269.81;1032123;28;19910;-71